Pine Bluffs, Wyoming
Current Conditions -  °F | °C
As of 1:55 PM on Thursday 18 Dec 2014 (Local Time) from K82V Reporting Station
Clear Clear  
Wind Chill: 33°   Ceiling: Unl
Heat Index: 41°   Visibility: 10mi
Dew Point: 21°   Wind: 15mph
Humidity: 45%   Direction: 340°NNW
Pressure: 30.01"   Gusts: 18mph
Location:  41.18°N, 104.07°W
Report Text: K82V 182055Z AUTO 34013G16KT 10SM CLR 05/M06 A3001 RMK AO2
Loading
Personal Weather Stations






























Interactive Weather Map New forecast layout! Learn more

10-Day Weather Forecast

Advertisements
Track Severe Weather on mobile